CDT,Max TemperatureF,Mean TemperatureF,Min TemperatureF,Max Dew PointF,MeanDew PointF,Min DewpointF,Max Humidity, Mean Humidity, Min Humidity, Max Sea Level PressureIn, Mean Sea Level PressureIn, Min Sea Level PressureIn, Max VisibilityMiles, Mean VisibilityMiles, Min VisibilityMiles, Max Wind SpeedMPH, Mean Wind SpeedMPH, Max Gust SpeedMPH,PrecipitationIn, CloudCover, Events, WindDirDegrees
2013-10-1,66,58,51,54,42,32,88,54,30,29.88,29.68,29.51,10,10,10,23,8,34,0.00,0,Rain,238
2013-10-2,64,54,42,46,40,36,100,64,37,30.04,29.99,29.89,10,10,7,9,4,,0.00,2,Rain,255
2013-10-3,60,48,35,50,43,36,100,81,55,30.08,30.01,29.98,10,10,2,8,1,,0.00,2,Rain,67
2013-10-4,55,47,39,48,45,39,100,83,62,30.19,30.14,30.08,10,9,1,10,3,21,0.00,6,Rain,53
2013-10-5,50,47,44,45,44,41,100,92,71,30.11,29.97,29.84,10,7,2,13,7,21,0.04,8,Rain-Thunderstorm,66
2013-10-6,50,42,35,45,42,36,100,94,82,29.83,29.77,29.75,10,9,2,8,4,16,0.05,6,Rain,340
2013-10-7,59,46,33,45,37,32,100,80,44,29.94,29.87,29.76,10,10,1,12,3,24,0.00,1,,279
2013-10-8,75,54,33,46,41,32,100,59,33,29.93,29.80,29.69,10,10,10,22,6,31,0.00,0,,165
2013-10-9,71,60,50,52,47,45,88,63,43,30.03,29.95,29.82,10,10,10,10,6,,0.00,0,,197
2013-10-10,71,58,44,48,47,45,100,67,43,30.03,29.97,29.90,10,10,10,15,3,23,0.00,0,,139
2013-10-11,71,61,51,55,50,45,88,69,46,29.93,29.80,29.58,10,10,5,20,6,34,0.00,1,Rain-Thunderstorm,117
2013-10-12,62,53,44,55,46,43,100,85,71,30.05,29.75,29.57,10,9,2,16,11,26,0.01,7,Rain,210
2013-10-13,55,42,28,43,33,27,100,69,41,30.39,30.29,30.06,10,10,7,15,8,21,0.00,2,,262
2013-10-14,50,38,26,43,35,27,100,86,62,30.41,30.32,30.18,10,10,3,7,0,,0.12,6,Rain,88
2013-10-15,44,42,41,43,41,39,100,92,87,30.18,29.97,29.88,10,10,5,10,5,17,0.06,8,Rain,33
2013-10-16,51,40,30,39,35,30,100,77,44,29.92,29.88,29.82,10,10,2,9,3,,0.00,3,,264
2013-10-17,48,42,37,43,39,36,100,90,76,29.85,29.80,29.77,10,10,7,8,1,,0.00,7,Rain,338
2013-10-18,46,36,26,34,29,27,100,76,50,29.90,29.83,29.75,10,10,10,12,2,20,0.00,5,,245
2013-10-19,44,36,28,36,31,28,100,87,57,29.74,29.69,29.66,10,10,4,10,2,,0.01,6,Rain,287
2013-10-20,35,30,24,34,30,25,100,96,87,29.77,29.72,29.70,10,8,2,10,1,17,0.03,6,Rain-Snow,284
2013-10-21,33,28,24,32,28,21,100,91,80,29.87,29.79,29.74,10,8,2,15,9,24,0.00,8,Snow,288
2013-10-22,37,32,26,30,26,21,93,78,56,29.99,29.95,29.87,10,10,5,8,3,,0.00,7,Snow,324
2013-10-23,33,30,26,28,26,21,100,83,60,30.03,29.96,29.92,10,9,2,13,7,21,0.00,8,Snow,285
2013-10-24,39,34,28,30,28,25,100,82,60,30.21,30.13,30.03,10,10,3,13,6,20,0.00,7,Rain-Snow,281
2013-10-25,48,38,28,37,30,27,93,76,53,30.21,29.89,29.61,10,10,10,21,6,32,0.00,5,Rain,228
2013-10-26,41,36,30,34,30,27,93,76,61,30.02,29.92,29.71,10,10,7,14,8,22,0.00,7,Rain,299
2013-10-27,42,34,26,30,26,16,81,70,57,30.29,29.91,29.71,10,10,7,10,6,21,0.00,6,Snow,305
2013-10-28,33,24,15,18,16,10,93,69,38,30.52,30.45,30.30,10,10,10,7,3,,0.00,0,,8
2013-10-29,39,26,12,25,18,10,100,78,45,30.45,30.29,30.13,10,10,10,8,1,,0.00,1,,202
2013-10-30,42,33,24,39,32,23,100,89,76,30.13,29.92,29.67,10,8,2,5,1,,0.01,8,Rain,137
2013-10-31,39,38,37,39,39,37,100,99,93,29.65,29.47,29.37,10,4,0,6,1,,0.01,8,Fog-Rain,308